Etusivu
METAR-TAF:

METAR-TAF

Lentoasemat :

McComb, Mississippi, Yhdysvallat

Leveyspiiri: 31-10-42N, Pituuspiiri: 090-28-19W, korkeus merenpinnasta: 126 m

Tämänhetkinen sää

Tämä raportti tehtiin 55 minuuttia sitten, kello 11.53 UTC
Tuuli 6 kn pohjoisesta
Lämpötila 4°C
Kosteus 87%
Ilmanpaine 1025 hPa
Näkyvyys: 16.1 km
selkeää

METAR: KMCB 151153Z AUTO 35006KT 10SM CLR 04/02 A3027 RMK AO2 SLP251 70003 T00390022 10061 20039 58000

Aika: 06:48 (12:48 UTC)

Sääennuste

Tämä raportti tehtiin 1 tunti ja 28 minuuttia sitten, kello 11.20 UTC
Ennuste voimassa 15. päivästä klo 12 UTC - 16. päivään klo 12 UTC
Tuuli 6 kn pohjoisesta
Näkyvyys: 10 km
selkeää
From 15. päivästä klo 1500 UTC
Tuuli 7 kn pohjoisesta
Näkyvyys: 10 km
selkeää
From 16. päivästä klo 0400 UTC
Tuuli 4 kn eri suunnista
Näkyvyys: 10 km
selkeää

TAF: KMCB 151120Z 1512/1612 35006KT P6SM SKC FM151500 36007KT P6SM SKC FM160400 VRB04KT P6SM SKC

Säähavainnot ja -ennusteet yli 4000 lentoasemalta (METAR- ja TAF-raportit).

Käytössä olevat sääasemat on merkitty karttaan keltaisilla ja punaisilla pisteillä.

Aseta hiiri pisteen päälle nähdäksesi sääaseman nimen.

Klikkaa sitten nähdäksesi säähavainnot ja -ennusteet.

Kartan vaihtaminen: klikkaa mustalla rastilla varustettuja vihreitä pisteitä, niin voit zoomata sisään; viivalla varustettua vihreää pistettä, niin voit zoomata ulos tai vihreitä nuolia, niin pääset viereisille kartoille.


METAR-TAF: